createdAt,value
2018-03-04T00:00:39.059Z,994.05
2018-03-04T00:01:39.025Z,993.97
2018-03-04T00:03:38.090Z,994.04
2018-03-04T00:04:34.393Z,994.05
2018-03-04T00:06:30.854Z,994.02
2018-03-04T00:07:30.340Z,994.06
2018-03-04T00:09:26.788Z,994.02
2018-03-04T00:10:26.275Z,994.02
2018-03-04T00:12:22.714Z,993.98
2018-03-04T00:13:22.189Z,994.04
2018-03-04T00:15:18.127Z,993.94
2018-03-04T00:16:18.613Z,993.97
2018-03-04T00:18:14.548Z,993.95
2018-03-04T00:19:14.023Z,994.01
2018-03-04T00:21:09.952Z,993.96
2018-03-04T00:22:09.916Z,993.95
2018-03-04T00:24:05.836Z,993.94
2018-03-04T00:25:05.825Z,993.96
2018-03-04T00:27:01.776Z,993.97
2018-03-04T00:28:01.762Z,994.02
2018-03-04T00:29:57.708Z,994.04
2018-03-04T00:30:57.667Z,993.97
2018-03-04T00:32:55.109Z,994.06
2018-03-04T00:33:54.114Z,993.99
2018-03-04T00:35:50.025Z,994.01
2018-03-04T00:36:49.492Z,994.01
2018-03-04T00:38:45.937Z,994.05
2018-03-04T00:39:45.397Z,994.08
2018-03-04T00:41:41.334Z,993.98
2018-03-04T00:42:41.859Z,994.06
2018-03-04T00:44:37.207Z,994.07
2018-03-04T00:45:37.224Z,994.06
2018-03-04T00:47:33.146Z,994.11
2018-03-04T00:48:33.137Z,994.04
2018-03-04T00:50:29.592Z,994.05
2018-03-04T00:51:29.062Z,994.02
2018-03-04T00:53:25.011Z,994.04
2018-03-04T00:54:26.427Z,994.06
2018-03-04T00:56:20.962Z,994.04
2018-03-04T00:57:20.886Z,994.10
2018-03-04T00:59:16.822Z,994.04
2018-03-04T01:00:16.805Z,994.05
2018-03-04T01:02:12.747Z,994.09
2018-03-04T01:03:12.745Z,994.10
2018-03-04T01:05:10.124Z,994.09
2018-03-04T01:06:08.656Z,994.10
2018-03-04T01:08:04.616Z,994.02
2018-03-04T01:09:04.533Z,994.06
2018-03-04T01:11:00.535Z,994.05
2018-03-04T01:12:01.487Z,994.05
2018-03-04T01:13:56.976Z,994.05
2018-03-04T01:14:56.963Z,994.05
2018-03-04T01:16:52.349Z,993.99
2018-03-04T01:17:52.340Z,994.01
2018-03-04T01:19:48.296Z,994.05
2018-03-04T01:20:48.273Z,994.02
2018-03-04T01:22:44.211Z,993.98
2018-03-04T01:23:44.189Z,993.99
2018-03-04T01:25:40.638Z,993.94
2018-03-04T01:26:40.116Z,993.98
2018-03-04T01:28:36.018Z,993.95
2018-03-04T01:29:36.594Z,993.95
2018-03-04T01:31:31.961Z,993.96
2018-03-04T01:32:32.445Z,993.93
2018-03-04T01:34:28.378Z,993.93
2018-03-04T01:35:28.397Z,993.92
2018-03-04T01:37:24.287Z,993.91
2018-03-04T01:38:23.765Z,993.92
2018-03-04T01:40:19.678Z,993.89
2018-03-04T01:41:19.680Z,993.85
2018-03-04T01:43:15.622Z,993.79
2018-03-04T01:44:15.613Z,993.78
2018-03-04T01:46:12.058Z,993.79
2018-03-04T01:47:12.060Z,993.74
2018-03-04T01:49:07.562Z,993.81
2018-03-04T01:50:07.426Z,993.75
2018-03-04T01:52:03.393Z,993.72
2018-03-04T01:53:03.875Z,993.66
2018-03-04T01:55:00.271Z,993.74
2018-03-04T01:55:59.783Z,993.71
2018-03-04T01:57:55.217Z,993.75
2018-03-04T01:58:55.708Z,993.72
2018-03-04T02:00:52.141Z,993.75
2018-03-04T02:01:51.638Z,993.77
2018-03-04T02:03:49.014Z,993.75
2018-03-04T02:04:49.015Z,993.77
2018-03-04T02:06:44.982Z,993.72
2018-03-04T02:07:44.940Z,993.75
2018-03-04T02:09:40.899Z,993.76
2018-03-04T02:10:40.873Z,993.75
2018-03-04T02:12:36.800Z,993.77
2018-03-04T02:13:36.789Z,993.76
2018-03-04T02:15:33.227Z,993.74
2018-03-04T02:16:32.704Z,993.79
2018-03-04T02:18:28.613Z,993.75
2018-03-04T02:19:28.589Z,993.68
2018-03-04T02:21:24.517Z,993.73
2018-03-04T02:22:24.511Z,993.72
2018-03-04T02:24:20.467Z,993.71
2018-03-04T02:25:20.421Z,993.67
2018-03-04T02:27:16.355Z,993.70
2018-03-04T02:28:16.330Z,993.69
2018-03-04T02:30:12.273Z,993.63
2018-03-04T02:31:12.781Z,993.59
2018-03-04T02:33:08.174Z,993.63
2018-03-04T02:34:08.164Z,993.62
2018-03-04T02:36:04.084Z,993.60
2018-03-04T02:37:04.628Z,993.59
2018-03-04T02:39:00.049Z,993.58
2018-03-04T02:40:00.532Z,993.51
2018-03-04T02:41:55.889Z,993.56
2018-03-04T02:42:56.412Z,993.54
2018-03-04T02:44:52.336Z,993.52
2018-03-04T02:45:52.369Z,993.51
2018-03-04T02:47:47.789Z,993.54
2018-03-04T02:48:48.265Z,993.61
2018-03-04T02:50:43.680Z,993.60
2018-03-04T02:51:43.673Z,993.58
2018-03-04T02:53:51.304Z,993.58
2018-03-04T02:54:51.284Z,993.60
2018-03-04T02:56:47.727Z,993.54
2018-03-04T02:57:47.734Z,993.54
2018-03-04T02:59:43.144Z,993.52
2018-03-04T03:00:43.140Z,993.49
2018-03-04T03:02:39.081Z,993.47
2018-03-04T03:03:39.554Z,993.41
2018-03-04T03:05:35.467Z,993.42
2018-03-04T03:06:34.957Z,993.42
2018-03-04T03:08:30.874Z,993.38
2018-03-04T03:09:31.398Z,993.35
2018-03-04T03:11:27.290Z,993.33
2018-03-04T03:12:27.292Z,993.37
2018-03-04T03:14:22.711Z,993.32
2018-03-04T03:15:22.666Z,993.30
2018-03-04T03:17:18.577Z,993.29
2018-03-04T03:18:18.580Z,993.29
2018-03-04T03:20:15.533Z,993.28
2018-03-04T03:21:14.509Z,993.26
2018-03-04T03:23:10.450Z,993.28
2018-03-04T03:24:10.450Z,993.30
2018-03-04T03:26:06.362Z,993.26
2018-03-04T03:27:06.360Z,993.27
2018-03-04T03:29:02.814Z,993.27
2018-03-04T03:30:02.236Z,993.25
2018-03-04T03:31:58.183Z,993.25
2018-03-04T03:32:58.680Z,993.22
2018-03-04T03:34:54.110Z,993.17
2018-03-04T03:35:54.084Z,993.21
2018-03-04T03:37:49.998Z,993.17
2018-03-04T03:38:49.996Z,993.17
2018-03-04T03:40:46.459Z,993.11
2018-03-04T03:41:45.936Z,993.09
2018-03-04T03:43:42.872Z,993.13
2018-03-04T03:44:41.844Z,993.10
2018-03-04T03:46:37.775Z,993.06
2018-03-04T03:47:37.783Z,993.04
2018-03-04T03:49:34.207Z,993.07
2018-03-04T03:50:33.702Z,993.09
2018-03-04T03:52:29.614Z,993.03
2018-03-04T03:53:29.612Z,993.05
2018-03-04T03:55:25.570Z,993.01
2018-03-04T03:56:25.562Z,993.05
2018-03-04T03:58:21.446Z,993.02
2018-03-04T03:59:21.445Z,992.99
2018-03-04T04:01:17.365Z,993.00
2018-03-04T04:02:17.373Z,993.02
2018-03-04T04:04:14.315Z,993.01
2018-03-04T04:05:13.290Z,993.04
2018-03-04T04:07:09.263Z,993.07
2018-03-04T04:09:25.211Z,993.04
2018-03-04T04:10:25.174Z,993.04
2018-03-04T04:12:21.117Z,993.03
2018-03-04T04:13:21.086Z,993.05
2018-03-04T04:15:17.054Z,993.09
2018-03-04T04:16:17.526Z,993.09
2018-03-04T04:18:12.913Z,993.09
2018-03-04T04:19:12.905Z,993.05
2018-03-04T04:21:08.828Z,993.04
2018-03-04T04:22:08.855Z,993.05
2018-03-04T04:24:04.280Z,993.03
2018-03-04T04:25:03.786Z,993.01
2018-03-04T04:26:59.166Z,993.00
2018-03-04T04:27:59.168Z,992.98
2018-03-04T04:29:55.096Z,993.04
2018-03-04T04:30:55.086Z,993.04
2018-03-04T04:32:51.522Z,993.01
2018-03-04T04:33:50.998Z,993.03
2018-03-04T04:35:47.935Z,993.01
2018-03-04T04:36:47.453Z,993.07
2018-03-04T04:38:42.846Z,993.10
2018-03-04T04:39:42.873Z,993.07
2018-03-04T04:41:40.276Z,993.12
2018-03-04T04:42:38.751Z,993.04
2018-03-04T04:44:34.664Z,993.04
2018-03-04T04:45:34.667Z,993.06
2018-03-04T04:47:30.592Z,993.03
2018-03-04T04:48:30.573Z,993.08
2018-03-04T04:50:26.505Z,993.03
2018-03-04T04:51:26.488Z,993.04
2018-03-04T04:53:22.452Z,993.05
2018-03-04T04:54:22.407Z,993.08
2018-03-04T04:56:18.345Z,992.99
2018-03-04T04:57:18.323Z,992.99
2018-03-04T04:59:14.256Z,993.00
2018-03-04T05:00:14.244Z,993.03
2018-03-04T05:02:10.211Z,993.04
2018-03-04T05:03:10.182Z,993.05
2018-03-04T05:05:06.137Z,993.02
2018-03-04T05:06:06.122Z,992.97
2018-03-04T05:08:02.058Z,992.99
2018-03-04T05:09:02.064Z,993.01
2018-03-04T05:10:58.032Z,993.01
2018-03-04T05:11:58.936Z,993.00
2018-03-04T05:13:53.907Z,992.96
2018-03-04T05:14:53.915Z,992.96
2018-03-04T05:16:50.367Z,992.93
2018-03-04T05:17:49.825Z,992.94
2018-03-04T05:19:45.788Z,992.95
2018-03-04T05:20:45.738Z,992.96
2018-03-04T05:22:42.174Z,992.93
2018-03-04T05:23:41.686Z,992.94
2018-03-04T05:25:38.621Z,992.96
2018-03-04T05:26:39.113Z,993.00
2018-03-04T05:28:33.549Z,992.99
2018-03-04T05:29:33.465Z,992.99
2018-03-04T05:31:29.422Z,992.97
2018-03-04T05:32:29.369Z,992.98
2018-03-04T05:34:25.341Z,992.97
2018-03-04T05:35:25.292Z,993.02
2018-03-04T05:37:21.256Z,992.97
2018-03-04T05:38:21.202Z,993.02
2018-03-04T05:40:17.656Z,993.05
2018-03-04T05:41:17.141Z,993.06
2018-03-04T05:43:13.088Z,993.03
2018-03-04T05:44:13.042Z,993.06
2018-03-04T05:46:09.009Z,993.07
2018-03-04T05:47:08.978Z,993.07
2018-03-04T05:49:05.426Z,993.08
2018-03-04T05:50:05.416Z,993.05
2018-03-04T05:52:00.872Z,993.11
2018-03-04T05:53:00.813Z,993.11
2018-03-04T05:54:56.763Z,993.11
2018-03-04T05:55:56.727Z,993.08
2018-03-04T05:57:52.687Z,993.07
2018-03-04T05:58:52.640Z,993.02
2018-03-04T06:00:49.098Z,993.09
2018-03-04T06:01:48.548Z,993.10
2018-03-04T06:03:44.519Z,993.12
2018-03-04T06:04:44.475Z,993.14
2018-03-04T06:06:40.921Z,993.17
2018-03-04T06:07:40.393Z,993.13
2018-03-04T06:09:36.342Z,993.13
2018-03-04T06:10:36.311Z,993.11
2018-03-04T06:12:32.245Z,993.14
2018-03-04T06:13:32.752Z,993.17
2018-03-04T06:15:28.145Z,993.20
2018-03-04T06:16:28.147Z,993.19
2018-03-04T06:18:24.112Z,993.16
2018-03-04T06:19:24.086Z,993.19
2018-03-04T06:21:20.050Z,993.12
2018-03-04T06:22:19.999Z,993.14
2018-03-04T06:24:16.957Z,993.20
2018-03-04T06:25:16.474Z,993.18
2018-03-04T06:27:11.887Z,993.25
2018-03-04T06:28:11.852Z,993.25
2018-03-04T06:30:09.302Z,993.27
2018-03-04T06:31:07.766Z,993.25
2018-03-04T06:33:03.678Z,993.28
2018-03-04T06:34:03.680Z,993.30
2018-03-04T06:35:59.616Z,993.31
2018-03-04T06:36:59.590Z,993.29
2018-03-04T06:38:55.473Z,993.28
2018-03-04T06:39:55.477Z,993.32
2018-03-04T06:41:51.432Z,993.33
2018-03-04T06:42:51.420Z,993.36
2018-03-04T06:44:47.385Z,993.35
2018-03-04T06:45:47.864Z,993.37
2018-03-04T06:47:44.270Z,993.37
2018-03-04T06:48:43.248Z,993.34
2018-03-04T06:50:39.168Z,993.34
2018-03-04T06:51:39.138Z,993.28
2018-03-04T06:53:35.595Z,993.27
2018-03-04T06:54:35.061Z,993.26
2018-03-04T06:56:31.007Z,993.22
2018-03-04T06:57:30.992Z,993.20
2018-03-04T06:59:26.940Z,993.26
2018-03-04T07:00:26.954Z,993.28
2018-03-04T07:02:22.877Z,993.25
2018-03-04T07:03:22.868Z,993.27
2018-03-04T07:05:18.791Z,993.19
2018-03-04T07:06:18.781Z,993.24
2018-03-04T07:08:14.739Z,993.21
2018-03-04T07:09:14.671Z,993.18
2018-03-04T07:11:10.642Z,993.18
2018-03-04T07:12:10.579Z,993.17
2018-03-04T07:14:06.532Z,993.20
2018-03-04T07:15:06.489Z,993.19
2018-03-04T07:17:03.956Z,993.22
2018-03-04T07:18:02.929Z,993.23
2018-03-04T07:19:59.841Z,993.18
2018-03-04T07:20:58.316Z,993.21
2018-03-04T07:22:54.260Z,993.22
2018-03-04T07:23:54.241Z,993.24
2018-03-04T07:25:50.712Z,993.23
2018-03-04T07:26:50.159Z,993.25
2018-03-04T07:28:46.604Z,993.26
2018-03-04T07:29:46.604Z,993.30
2018-03-04T07:31:42.021Z,993.29
2018-03-04T07:32:42.985Z,993.27
2018-03-04T07:34:36.433Z,993.26
2018-03-04T07:35:36.432Z,993.29
2018-03-04T07:37:32.347Z,993.30
2018-03-04T07:38:32.349Z,993.30
2018-03-04T07:40:28.296Z,993.29
2018-03-04T07:41:28.270Z,993.32
2018-03-04T07:43:24.211Z,993.21
2018-03-04T07:44:24.192Z,993.23
2018-03-04T07:46:20.100Z,993.20
2018-03-04T07:47:20.128Z,993.24
2018-03-04T07:49:16.064Z,993.27
2018-03-04T07:50:16.031Z,993.27
2018-03-04T07:52:11.962Z,993.26
2018-03-04T07:53:11.944Z,993.27
2018-03-04T07:55:07.878Z,993.28
2018-03-04T07:56:07.868Z,993.29
2018-03-04T07:58:04.333Z,993.34
2018-03-04T07:59:04.307Z,993.38
2018-03-04T08:00:59.689Z,993.41
2018-03-04T08:02:00.207Z,993.46
2018-03-04T08:03:55.632Z,993.46
2018-03-04T08:04:55.613Z,993.51
2018-03-04T08:06:52.541Z,993.52
2018-03-04T08:07:52.037Z,993.52
2018-03-04T08:09:48.481Z,993.47
2018-03-04T08:10:47.480Z,993.49
2018-03-04T08:12:43.416Z,993.46
2018-03-04T08:13:43.391Z,993.49
2018-03-04T08:15:39.341Z,993.50
2018-03-04T08:16:39.323Z,993.52
2018-03-04T08:18:35.283Z,993.48
2018-03-04T08:19:35.763Z,993.44
2018-03-04T08:21:31.167Z,993.44
2018-03-04T08:22:31.679Z,993.39
2018-03-04T08:24:27.586Z,993.38
2018-03-04T08:25:27.076Z,993.38
2018-03-04T08:27:23.033Z,993.35
2018-03-04T08:28:22.985Z,993.30
2018-03-04T08:30:18.946Z,993.29
2018-03-04T08:31:19.448Z,993.29
2018-03-04T08:33:16.371Z,993.23
2018-03-04T08:34:15.698Z,993.18
2018-03-04T08:36:11.627Z,993.19
2018-03-04T08:37:11.615Z,993.22
2018-03-04T08:39:09.074Z,993.25
2018-03-04T08:40:07.517Z,993.32
2018-03-04T08:42:03.453Z,993.25
2018-03-04T08:43:03.436Z,993.27
2018-03-04T08:44:59.900Z,993.30
2018-03-04T08:45:59.383Z,993.29
2018-03-04T08:47:55.300Z,993.33
2018-03-04T08:48:55.291Z,993.32
2018-03-04T08:50:51.235Z,993.34
2018-03-04T08:51:51.223Z,993.35
2018-03-04T08:53:48.178Z,993.39
2018-03-04T08:54:47.172Z,993.38
2018-03-04T08:56:43.593Z,993.31
2018-03-04T08:57:43.106Z,993.33
2018-03-04T08:59:40.450Z,993.34
2018-03-04T09:00:39.005Z,993.32
2018-03-04T09:02:34.961Z,993.33
2018-03-04T09:03:34.935Z,993.30
2018-03-04T09:05:31.389Z,993.37
2018-03-04T09:06:30.913Z,993.36
2018-03-04T09:08:26.820Z,993.37
2018-03-04T09:09:26.776Z,993.34
2018-03-04T09:11:22.735Z,993.30
2018-03-04T09:12:22.729Z,993.31
2018-03-04T09:14:19.163Z,993.29
2018-03-04T09:15:18.642Z,993.30
2018-03-04T09:17:15.126Z,993.32
2018-03-04T09:18:14.564Z,993.30
2018-03-04T09:20:11.453Z,993.33
2018-03-04T09:21:11.008Z,993.34
2018-03-04T09:23:06.449Z,993.38
2018-03-04T09:24:06.954Z,993.36
2018-03-04T09:26:02.864Z,993.36
2018-03-04T09:27:02.367Z,993.34
2018-03-04T09:28:58.260Z,993.26
2018-03-04T09:29:58.814Z,993.26
2018-03-04T09:31:54.209Z,993.26
2018-03-04T09:32:54.197Z,993.24
2018-03-04T09:34:48.647Z,993.31
2018-03-04T09:35:48.599Z,993.26
2018-03-04T09:37:44.560Z,993.33
2018-03-04T09:38:44.526Z,993.27
2018-03-04T09:40:40.496Z,993.24
2018-03-04T09:41:40.457Z,993.24
2018-03-04T09:43:36.400Z,993.25
2018-03-04T09:44:36.916Z,993.22
2018-03-04T09:46:32.371Z,993.21
2018-03-04T09:47:32.309Z,993.22
2018-03-04T09:49:28.259Z,993.18
2018-03-04T09:50:28.266Z,993.12
2018-03-04T09:52:26.202Z,993.04
2018-03-04T09:53:25.196Z,993.08
2018-03-04T09:55:20.162Z,993.06
2018-03-04T09:56:20.157Z,993.07
2018-03-04T09:58:16.096Z,993.08
2018-03-04T09:59:16.031Z,993.07
2018-03-04T10:01:11.968Z,993.02
2018-03-04T10:02:12.530Z,992.95
2018-03-04T10:04:07.883Z,992.92
2018-03-04T10:05:07.901Z,992.90
2018-03-04T10:07:02.833Z,992.86
2018-03-04T10:08:02.855Z,992.80
2018-03-04T10:09:58.749Z,992.81
2018-03-04T10:10:58.224Z,992.86
2018-03-04T10:12:52.674Z,992.78
2018-03-04T10:13:52.645Z,992.75
2018-03-04T10:15:49.535Z,992.78
2018-03-04T10:16:48.582Z,992.77
2018-03-04T10:18:44.487Z,992.81
2018-03-04T10:19:44.483Z,992.81
2018-03-04T10:21:40.444Z,992.84
2018-03-04T10:22:40.401Z,992.82
2018-03-04T10:24:36.389Z,992.81
2018-03-04T10:25:36.886Z,992.80
2018-03-04T10:27:32.298Z,992.80
2018-03-04T10:28:32.272Z,992.79
2018-03-04T10:30:29.224Z,992.83
2018-03-04T10:31:28.200Z,992.81
2018-03-04T10:33:24.137Z,992.76
2018-03-04T10:34:24.138Z,992.73
2018-03-04T10:36:20.595Z,992.69
2018-03-04T10:37:20.710Z,992.68
2018-03-04T10:39:17.054Z,992.70
2018-03-04T10:40:16.528Z,992.69
2018-03-04T10:42:12.266Z,992.68
2018-03-04T10:43:12.257Z,992.67
2018-03-04T10:45:06.702Z,992.72
2018-03-04T10:46:05.820Z,992.73
2018-03-04T10:48:04.820Z,992.71
2018-03-04T10:50:56.847Z,992.70
2018-03-04T10:51:54.257Z,992.79
2018-03-04T10:53:50.062Z,992.68
2018-03-04T10:54:49.557Z,992.69
2018-03-04T10:56:46.500Z,992.65
2018-03-04T10:57:45.489Z,992.62
2018-03-04T10:59:41.945Z,992.67
2018-03-04T11:00:41.436Z,992.61
2018-03-04T11:02:35.861Z,992.55
2018-03-04T11:03:35.853Z,992.56
2018-03-04T11:05:30.809Z,992.52
2018-03-04T11:06:30.281Z,992.54
2018-03-04T11:08:27.737Z,992.50
2018-03-04T11:09:26.738Z,992.52
2018-03-04T11:11:22.657Z,992.51
2018-03-04T11:12:22.120Z,992.53
2018-03-04T11:14:18.060Z,992.53
2018-03-04T11:15:18.057Z,992.52
2018-03-04T11:17:14.511Z,992.51
2018-03-04T11:18:13.969Z,992.48
2018-03-04T11:20:08.923Z,992.47
2018-03-04T11:21:08.404Z,992.44
2018-03-04T11:23:03.852Z,992.44
2018-03-04T11:24:04.353Z,992.46
2018-03-04T11:25:56.805Z,992.47
2018-03-04T11:26:56.792Z,992.48
2018-03-04T11:28:50.752Z,992.50
2018-03-04T11:29:50.691Z,992.45
2018-03-04T11:31:45.150Z,992.36
2018-03-04T11:32:45.632Z,992.37
2018-03-04T11:34:41.571Z,992.33
2018-03-04T11:35:42.068Z,992.35
2018-03-04T11:37:37.005Z,992.32
2018-03-04T11:38:37.006Z,992.29
2018-03-04T11:40:32.970Z,992.26
2018-03-04T11:41:33.463Z,992.26
2018-03-04T11:43:26.371Z,992.17
2018-03-04T11:44:27.873Z,992.20
2018-03-04T11:46:20.843Z,992.19
2018-03-04T11:47:20.806Z,992.19
2018-03-04T11:49:17.241Z,992.14
2018-03-04T11:50:17.247Z,992.09
2018-03-04T11:52:12.680Z,992.02
2018-03-04T11:53:12.674Z,992.03
2018-03-04T11:55:08.581Z,992.01
2018-03-04T11:56:08.589Z,992.04
2018-03-04T11:58:05.550Z,992.01
2018-03-04T11:59:04.509Z,991.92
2018-03-04T12:01:00.453Z,991.81
2018-03-04T12:02:00.444Z,991.80
2018-03-04T12:03:56.407Z,991.82
2018-03-04T12:04:56.383Z,991.82
2018-03-04T12:06:51.339Z,991.77
2018-03-04T12:07:50.837Z,991.76
2018-03-04T12:09:46.356Z,991.72
2018-03-04T12:10:45.291Z,991.70
2018-03-04T12:12:41.751Z,991.66
2018-03-04T12:13:41.741Z,991.68
2018-03-04T12:15:37.167Z,991.70
2018-03-04T12:16:37.167Z,991.68
2018-03-04T12:18:33.121Z,991.65
2018-03-04T12:19:33.098Z,991.61
2018-03-04T12:21:29.081Z,991.51
2018-03-04T12:22:29.547Z,991.56
2018-03-04T12:24:25.003Z,991.52
2018-03-04T12:25:25.528Z,991.56
2018-03-04T12:27:21.942Z,991.52
2018-03-04T12:28:21.941Z,991.51
2018-03-04T12:30:16.915Z,991.47
2018-03-04T12:31:16.887Z,991.49
2018-03-04T12:33:12.826Z,991.42
2018-03-04T12:34:12.833Z,991.40
2018-03-04T12:36:08.752Z,991.36
2018-03-04T12:38:24.218Z,991.37
2018-03-04T12:39:23.697Z,991.33
2018-03-04T12:41:20.110Z,991.24
2018-03-04T12:42:19.093Z,991.27
2018-03-04T12:44:15.057Z,991.24
2018-03-04T12:45:15.541Z,991.25
2018-03-04T12:47:11.003Z,991.23
2018-03-04T12:48:11.995Z,991.26
2018-03-04T12:50:06.968Z,991.22
2018-03-04T12:51:07.475Z,991.16
2018-03-04T12:53:03.387Z,991.13
2018-03-04T12:54:02.862Z,991.14
2018-03-04T12:55:59.807Z,991.14
2018-03-04T12:56:58.824Z,991.14
2018-03-04T12:58:54.717Z,991.13
2018-03-04T12:59:54.746Z,991.14
2018-03-04T13:01:50.682Z,991.13
2018-03-04T13:02:50.658Z,991.09
2018-03-04T13:04:49.607Z,991.13
2018-03-04T13:05:49.598Z,991.11
2018-03-04T13:07:45.160Z,991.10
2018-03-04T13:08:44.624Z,991.11
2018-03-04T13:10:40.555Z,991.09
2018-03-04T13:11:40.576Z,991.10
2018-03-04T13:13:37.029Z,991.02
2018-03-04T13:14:36.476Z,991.05
2018-03-04T13:16:32.471Z,991.01
2018-03-04T13:17:32.418Z,990.94
2018-03-04T13:19:26.893Z,990.93
2018-03-04T13:20:26.853Z,990.89
2018-03-04T13:22:20.360Z,990.96
2018-03-04T13:23:20.291Z,990.97
2018-03-04T13:25:16.221Z,990.93
2018-03-04T13:26:16.238Z,990.90
2018-03-04T13:28:12.144Z,990.84
2018-03-04T13:29:12.132Z,990.78
2018-03-04T13:31:08.091Z,990.82
2018-03-04T13:32:08.087Z,990.81
2018-03-04T13:34:04.579Z,990.81
2018-03-04T13:35:04.544Z,990.78
2018-03-04T13:37:00.504Z,990.76
2018-03-04T13:39:54.170Z,990.72
2018-03-04T13:40:54.156Z,990.68
2018-03-04T13:42:52.269Z,990.67
2018-03-04T13:43:52.165Z,990.70
2018-03-04T13:45:47.137Z,990.72
2018-03-04T13:46:46.645Z,990.72
2018-03-04T13:48:44.109Z,990.73
2018-03-04T13:49:44.094Z,990.66
2018-03-04T13:51:40.514Z,990.60
2018-03-04T13:52:39.514Z,990.62
2018-03-04T13:54:37.474Z,990.53
2018-03-04T13:55:35.975Z,990.52
2018-03-04T13:57:32.420Z,990.46
2018-03-04T13:58:31.429Z,990.51
2018-03-04T14:00:29.399Z,990.44
2018-03-04T14:01:29.386Z,990.45
2018-03-04T14:03:25.402Z,990.53
2018-03-04T14:04:25.319Z,990.49
2018-03-04T14:06:21.238Z,990.49
2018-03-04T14:07:22.773Z,990.43
2018-03-04T14:09:19.157Z,990.42
2018-03-04T14:10:19.176Z,990.41
2018-03-04T14:12:17.228Z,990.37
2018-03-04T14:13:18.115Z,990.34
2018-03-04T14:15:15.689Z,990.37
2018-03-04T14:16:15.310Z,990.39
2018-03-04T14:18:13.274Z,990.37
2018-03-04T14:19:14.767Z,990.35
2018-03-04T14:21:11.673Z,990.34
2018-03-04T14:22:11.143Z,990.36
2018-03-04T14:24:09.273Z,990.32
2018-03-04T14:25:10.099Z,990.33
2018-03-04T14:27:07.298Z,990.34
2018-03-04T14:28:08.182Z,990.31
2018-03-04T14:30:03.754Z,990.29
2018-03-04T14:31:04.235Z,990.26
2018-03-04T14:33:02.748Z,990.26
2018-03-04T14:34:01.713Z,990.29
2018-03-04T14:36:00.138Z,990.28
2018-03-04T14:36:59.645Z,990.31
2018-03-04T14:38:57.595Z,990.16
2018-03-04T14:39:57.557Z,990.20
2018-03-04T14:41:57.989Z,990.14
2018-03-04T14:42:58.473Z,990.06
2018-03-04T14:44:55.954Z,990.08
2018-03-04T14:45:55.419Z,990.01
2018-03-04T14:47:54.860Z,989.94
2018-03-04T14:48:55.399Z,989.87
2018-03-04T14:50:51.551Z,989.84
2018-03-04T14:51:51.922Z,989.83
2018-03-04T14:53:49.882Z,989.90
2018-03-04T14:54:48.379Z,989.87
2018-03-04T14:56:43.371Z,989.82
2018-03-04T14:57:43.359Z,989.77
2018-03-04T14:59:39.340Z,989.80
2018-03-04T15:00:39.340Z,989.87
2018-03-04T15:02:38.286Z,989.81
2018-03-04T15:03:37.302Z,989.82
2018-03-04T15:05:35.771Z,989.78
2018-03-04T15:06:35.423Z,989.73
2018-03-04T15:08:33.740Z,989.69
2018-03-04T15:09:33.205Z,989.66
2018-03-04T15:11:31.141Z,989.61
2018-03-04T15:12:31.171Z,989.67
2018-03-04T15:14:30.104Z,989.57
2018-03-04T15:15:29.668Z,989.60
2018-03-04T15:17:27.588Z,989.57
2018-03-04T15:18:27.588Z,989.56
2018-03-04T15:20:27.002Z,989.54
2018-03-04T15:21:25.005Z,989.53
2018-03-04T15:23:23.946Z,989.49
2018-03-04T15:24:23.442Z,989.48
2018-03-04T15:26:21.461Z,989.41
2018-03-04T15:27:20.993Z,989.46
2018-03-04T15:29:19.934Z,989.47
2018-03-04T15:30:19.025Z,989.45
2018-03-04T15:32:15.917Z,989.48
2018-03-04T15:33:15.487Z,989.43
2018-03-04T15:35:11.989Z,989.52
2018-03-04T15:36:10.925Z,989.49
2018-03-04T15:38:09.905Z,989.45
2018-03-04T15:39:09.386Z,989.46
2018-03-04T15:41:08.289Z,989.46
2018-03-04T15:42:07.789Z,989.45
2018-03-04T15:44:04.899Z,989.44
2018-03-04T15:45:04.838Z,989.43
2018-03-04T15:47:02.811Z,989.43
2018-03-04T15:48:02.814Z,989.36
2018-03-04T15:50:00.787Z,989.38
2018-03-04T15:51:00.769Z,989.36
2018-03-04T15:52:59.736Z,989.42
2018-03-04T15:53:58.655Z,989.39
2018-03-04T15:55:57.633Z,989.38
2018-03-04T15:56:57.627Z,989.39
2018-03-04T15:58:54.637Z,989.35
2018-03-04T15:59:54.661Z,989.39
2018-03-04T16:01:52.609Z,989.41
2018-03-04T16:02:52.594Z,989.38
2018-03-04T16:04:52.550Z,989.31
2018-03-04T16:05:51.152Z,989.30
2018-03-04T16:07:49.678Z,989.26
2018-03-04T16:08:48.122Z,989.25
2018-03-04T16:10:46.066Z,989.18
2018-03-04T16:11:45.042Z,989.19
2018-03-04T16:13:46.028Z,989.14
2018-03-04T16:14:45.541Z,989.13
2018-03-04T16:16:51.914Z,989.13
2018-03-04T16:17:46.049Z,988.95
2018-03-04T16:19:45.443Z,988.96
2018-03-04T16:20:44.044Z,989.02
2018-03-04T16:22:42.519Z,989.01
2018-03-04T16:23:43.998Z,989.04
2018-03-04T16:25:40.047Z,989.02
2018-03-04T16:26:40.045Z,988.97
2018-03-04T16:28:38.126Z,989.01
2018-03-04T16:29:38.089Z,988.98
2018-03-04T16:31:37.579Z,988.99
2018-03-04T16:32:36.162Z,988.97
2018-03-04T16:34:36.576Z,988.97
2018-03-04T16:35:36.629Z,988.95
2018-03-04T16:37:35.053Z,989.00
2018-03-04T16:38:35.036Z,989.03
2018-03-04T16:40:32.673Z,989.03
2018-03-04T16:41:32.607Z,989.01
2018-03-04T16:43:33.113Z,989.07
2018-03-04T16:44:33.064Z,989.03
2018-03-04T16:46:33.535Z,988.95
2018-03-04T16:47:33.999Z,988.95
2018-03-04T16:49:34.060Z,988.94
2018-03-04T16:50:34.441Z,988.99
2018-03-04T16:52:34.487Z,989.01
2018-03-04T16:53:34.394Z,989.06
2018-03-04T16:55:34.811Z,989.24
2018-03-04T16:56:35.304Z,989.31
2018-03-04T16:58:35.202Z,989.33
2018-03-04T16:59:35.186Z,989.33
2018-03-04T17:01:35.145Z,989.36
2018-03-04T17:02:33.713Z,989.26
2018-03-04T17:04:29.072Z,989.03
2018-03-04T17:05:29.192Z,989.01
2018-03-04T17:07:27.105Z,989.14
2018-03-04T17:08:27.122Z,989.13
2018-03-04T17:10:25.586Z,988.94
2018-03-04T17:11:25.593Z,988.83
2018-03-04T17:13:20.996Z,988.57
2018-03-04T17:14:21.001Z,988.55
2018-03-04T17:16:17.516Z,988.69
2018-03-04T17:17:17.465Z,988.80
2018-03-04T17:19:12.887Z,988.73
2018-03-04T17:20:12.866Z,988.67
2018-03-04T17:22:09.320Z,988.66
2018-03-04T17:23:08.859Z,988.68
2018-03-04T17:25:04.802Z,988.67
2018-03-04T17:26:04.748Z,988.63
2018-03-04T17:28:05.204Z,988.57
2018-03-04T17:29:05.207Z,988.60
2018-03-04T17:31:03.225Z,988.65
2018-03-04T17:32:03.682Z,988.75
2018-03-04T17:34:02.108Z,988.86
2018-03-04T17:35:01.265Z,988.91
2018-03-04T17:37:02.274Z,988.85
2018-03-04T17:38:01.698Z,988.75
2018-03-04T17:39:58.635Z,988.77
2018-03-04T17:40:59.140Z,988.71
2018-03-04T17:42:58.619Z,988.70
2018-03-04T17:43:56.561Z,988.66
2018-03-04T17:45:56.021Z,988.68
2018-03-04T17:46:55.525Z,988.75
2018-03-04T17:48:54.564Z,988.63
2018-03-04T17:49:53.568Z,988.65
2018-03-04T17:51:51.195Z,988.66
2018-03-04T17:52:50.585Z,988.68
2018-03-04T17:54:50.046Z,988.73
2018-03-04T17:55:49.585Z,988.76
2018-03-04T17:57:48.510Z,988.75
2018-03-04T17:58:47.585Z,988.75
2018-03-04T18:00:44.624Z,988.81
2018-03-04T18:01:44.692Z,988.83
2018-03-04T18:03:43.570Z,988.83
2018-03-04T18:04:42.532Z,988.77
2018-03-04T18:06:41.494Z,988.83
2018-03-04T18:07:40.478Z,988.88
2018-03-04T18:09:38.403Z,988.88
2018-03-04T18:10:38.441Z,988.87
2018-03-04T18:12:34.392Z,988.83
2018-03-04T18:13:34.367Z,988.89
2018-03-04T18:15:32.344Z,988.87
2018-03-04T18:16:32.814Z,988.87
2018-03-04T18:18:30.735Z,988.87
2018-03-04T18:19:30.177Z,988.81
2018-03-04T18:21:26.630Z,988.91
2018-03-04T18:22:27.128Z,988.84
2018-03-04T18:24:26.615Z,988.87